Time;durP1;ratioP1;P1;durP2;ratioP2;P2;SDS_P1;SDS_P2;PMS_P1;PMS_P2;Temp;Humidity;BMP_temperature;BMP_pressure;BME280_temperature;BME280_humidity;BME280_pressure;Samples;Min_cycle;Max_cycle;Signal;HPM_P1;HPM_P2
2023/09/04 00:02:37;;;;;;;4.80;2.93;;;;;;;21.00;59.13;99740.97;6964365;28;20321;-86
2023/09/04 00:06:17;;;;;;;3.80;3.33;;;;;;;21.02;59.16;99734.13;6951824;28;20302;-86
2023/09/04 00:09:39;;;;;;;4.77;3.13;;;;;;;20.74;59.81;99729.78;6943279;28;20821;-85
2023/09/04 00:13:00;;;;;;;3.83;3.43;;;;;;;20.70;59.65;99734.09;6943689;28;20206;-86
2023/09/04 00:16:22;;;;;;;5.33;3.00;;;;;;;20.75;59.75;99742.41;6942700;28;20833;-85
2023/09/04 00:19:45;;;;;;;5.40;3.40;;;;;;;20.83;59.64;99729.94;6943543;28;20692;-86
2023/09/04 00:23:06;;;;;;;4.80;3.37;;;;;;;20.77;59.32;99736.41;6943146;28;20286;-86
2023/09/04 00:26:28;;;;;;;4.10;3.40;;;;;;;20.86;59.56;99734.09;6942518;28;20317;-86
2023/09/04 00:29:49;;;;;;;4.00;3.53;;;;;;;20.42;59.62;99691.13;6943358;28;20363;-86
2023/09/04 00:33:11;;;;;;;4.30;3.90;;;;;;;20.51;59.95;99719.78;6943382;28;20680;-86
2023/09/04 00:36:34;;;;;;;3.80;3.50;;;;;;;20.62;60.11;99718.88;6942368;28;20329;-86
2023/09/04 00:39:55;;;;;;;4.20;3.40;;;;;;;20.74;59.62;99700.47;6942512;28;20294;-86
2023/09/04 00:43:17;;;;;;;5.17;3.73;;;;;;;20.39;59.98;99686.13;6942873;28;20681;-86
2023/09/04 00:46:38;;;;;;;3.73;3.43;;;;;;;20.58;60.04;99705.94;6941947;28;20310;-86
2023/09/04 00:50:00;;;;;;;5.57;3.60;;;;;;;20.52;59.77;99705.00;6942758;28;20285;-86
2023/09/04 00:53:23;;;;;;;4.03;3.47;;;;;;;20.67;59.41;99708.00;6942747;28;20581;-85
2023/09/04 00:56:46;;;;;;;3.70;3.40;;;;;;;20.45;59.36;99698.84;6941841;28;20292;-85
2023/09/04 01:00:10;;;;;;;5.20;3.60;;;;;;;20.33;60.37;99697.28;6942304;28;20207;-85
2023/09/04 01:03:32;;;;;;;5.93;3.73;;;;;;;20.53;60.04;99703.09;6942052;28;20274;-84
2023/09/04 01:06:54;;;;;;;4.53;3.37;;;;;;;20.33;59.95;99703.56;6941697;28;20256;-86
2023/09/04 01:10:16;;;;;;;8.30;3.77;;;;;;;20.42;59.92;99704.84;6941963;28;20237;-85
2023/09/04 01:13:42;;;;;;;4.47;4.00;;;;;;;19.33;62.25;99667.84;6942364;28;20344;-85
2023/09/04 01:17:03;;;;;;;4.10;3.77;;;;;;;19.86;62.30;99709.47;6941234;28;20275;-85
2023/09/04 01:20:27;;;;;;;3.60;3.30;;;;;;;19.81;61.35;99652.69;6941648;28;20214;-85
2023/09/04 01:23:49;;;;;;;3.67;3.30;;;;;;;20.09;61.24;99710.22;6941765;28;20281;-85
2023/09/04 01:27:15;;;;;;;4.00;3.70;;;;;;;20.27;60.69;99703.72;6941388;28;20354;-85
2023/09/04 01:30:42;;;;;;;7.50;3.93;;;;;;;20.38;60.68;99702.81;6941711;28;20369;-85
2023/09/04 01:34:08;;;;;;;4.00;3.60;;;;;;;20.17;60.58;99707.09;6941677;28;20834;-85
2023/09/04 01:37:32;;;;;;;5.30;4.07;;;;;;;19.89;61.05;99703.47;6944150;28;20240;-86
2023/09/04 01:40:53;;;;;;;4.60;3.70;;;;;;;20.15;60.59;99686.50;6942451;28;20673;-84
2023/09/04 01:44:15;;;;;;;5.93;3.90;;;;;;;20.22;60.06;99700.91;6943617;28;20778;-85
2023/09/04 01:47:36;;;;;;;5.97;4.20;;;;;;;18.91;63.75;99696.31;6943431;28;20590;-84
2023/09/04 01:50:58;;;;;;;5.67;3.83;;;;;;;18.94;63.13;99628.38;6943437;28;20310;-84
2023/09/04 01:54:21;;;;;;;7.13;3.87;;;;;;;19.75;62.06;99685.69;6943364;28;20360;-84
2023/09/04 01:57:42;;;;;;;6.80;3.97;;;;;;;20.17;60.90;99700.78;6943113;28;20568;-84
2023/09/04 02:01:04;;;;;;;4.73;3.37;;;;;;;20.16;59.84;99710.09;6944633;28;20199;-85
2023/09/04 02:04:25;;;;;;;5.17;3.50;;;;;;;20.03;60.16;99704.84;6968757;28;20372;-85
2023/09/04 02:07:47;;;;;;;6.93;3.87;;;;;;;20.00;59.87;99705.34;6967808;28;20340;-85
2023/09/04 02:11:09;;;;;;;5.87;3.90;;;;;;;20.01;60.44;99707.00;6968369;28;20304;-86
2023/09/04 02:14:31;;;;;;;4.10;3.70;;;;;;;19.73;60.18;99654.97;6973146;28;20719;-86
2023/09/04 02:17:52;;;;;;;4.87;3.90;;;;;;;20.13;60.07;99702.34;6973769;28;20659;-85
2023/09/04 02:21:14;;;;;;;4.03;3.63;;;;;;;19.90;60.24;99695.03;6973733;28;20215;-85
2023/09/04 02:24:35;;;;;;;6.20;3.57;;;;;;;20.13;59.85;99692.25;6974201;28;20280;-85
2023/09/04 02:27:58;;;;;;;4.77;3.30;;;;;;;19.94;59.88;99698.13;6973582;28;20237;-86
2023/09/04 02:31:20;;;;;;;6.60;4.03;;;;;;;19.51;60.43;99698.56;6973527;28;20207;-86
2023/09/04 02:34:41;;;;;;;5.57;4.10;;;;;;;19.58;60.88;99704.75;6973889;28;20373;-85
2023/09/04 02:38:03;;;;;;;4.30;3.90;;;;;;;19.47;61.23;99699.31;6972742;28;20238;-85
2023/09/04 02:41:25;;;;;;;6.60;4.20;;;;;;;19.55;61.37;99697.03;6973428;28;20202;-85
2023/09/04 02:44:47;;;;;;;4.60;4.20;;;;;;;19.69;61.19;99681.19;6973015;28;20321;-86
2023/09/04 02:48:09;;;;;;;5.97;3.83;;;;;;;19.74;60.10;99697.72;6972605;28;20307;-85
2023/09/04 02:51:30;;;;;;;3.83;3.53;;;;;;;19.68;60.64;99690.44;6973170;28;20355;-85
2023/09/04 02:54:54;;;;;;;4.20;3.80;;;;;;;19.73;60.19;99698.75;6973120;28;20230;-85
2023/09/04 02:58:16;;;;;;;3.90;3.50;;;;;;;19.63;60.35;99690.38;6973642;28;20709;-84
2023/09/04 03:01:39;;;;;;;4.17;3.40;;;;;;;19.69;60.21;99700.34;6975838;28;20217;-85
2023/09/04 03:05:01;;;;;;;7.60;4.00;;;;;;;19.51;60.23;99689.56;6976169;28;20713;-84
2023/09/04 03:08:23;;;;;;;6.33;3.60;;;;;;;19.67;60.04;99702.47;6975007;28;20214;-84
2023/09/04 03:11:45;;;;;;;7.70;4.03;;;;;;;19.37;60.45;99691.72;6976499;28;20344;-85
2023/09/04 03:15:07;;;;;;;4.97;4.47;;;;;;;19.47;60.68;99702.88;6975952;28;20731;-84
2023/09/04 03:18:30;;;;;;;4.47;3.70;;;;;;;19.49;60.31;99686.22;6975321;28;20281;-85
2023/09/04 03:21:51;;;;;;;5.27;4.27;;;;;;;19.37;60.66;99683.50;6976835;28;20364;-85
2023/09/04 03:25:15;;;;;;;4.30;3.90;;;;;;;19.30;60.85;99681.97;6971609;28;20226;-84
2023/09/04 03:28:37;;;;;;;4.60;4.20;;;;;;;19.29;60.64;99685.78;6971459;28;20233;-85
2023/09/04 03:31:58;;;;;;;4.53;4.13;;;;;;;19.29;60.54;99696.72;6972442;28;20335;-85
2023/09/04 03:35:21;;;;;;;4.67;4.20;;;;;;;19.41;60.39;99690.16;6972087;28;20237;-84
2023/09/04 03:38:46;;;;;;;5.13;3.57;;;;;;;19.52;59.79;99672.88;6972494;28;20199;-85
2023/09/04 03:42:08;;;;;;;6.77;4.10;;;;;;;19.53;59.34;99684.66;6974850;28;20198;-84
2023/09/04 03:45:33;;;;;;;4.33;3.93;;;;;;;19.44;59.72;99697.03;6973978;28;20329;-84
2023/09/04 03:48:54;;;;;;;4.57;4.20;;;;;;;19.07;59.77;99660.94;6974827;28;20248;-84
2023/09/04 03:52:17;;;;;;;5.77;5.00;;;;;;;19.27;60.42;99709.81;6976637;28;20285;-85
2023/09/04 03:55:39;;;;;;;7.87;4.10;;;;;;;19.31;59.27;99679.00;6973516;28;20316;-86
2023/09/04 03:59:00;;;;;;;7.80;4.10;;;;;;;19.30;60.14;99712.91;6974401;28;20236;-84
2023/09/04 04:02:22;;;;;;;5.00;4.50;;;;;;;19.35;59.97;99698.50;6967282;28;20221;-85
2023/09/04 04:05:43;;;;;;;5.90;4.63;;;;;;;18.56;61.20;99698.19;6971593;28;20368;-85
2023/09/04 04:09:07;;;;;;;5.43;4.93;;;;;;;19.10;60.88;99720.56;6970259;28;20264;-85
2023/09/04 04:12:31;;;;;;;8.80;4.73;;;;;;;19.07;60.65;99712.03;6968159;28;20693;-85
2023/09/04 04:15:57;;;;;;;4.97;4.43;;;;;;;18.95;60.70;99717.50;6972100;28;20741;-84
2023/09/04 04:19:20;;;;;;;4.80;4.10;;;;;;;19.17;60.18;99734.97;6973116;28;20206;-84
2023/09/04 04:22:45;;;;;;;5.03;4.27;;;;;;;18.78;60.62;99734.81;6970729;28;20256;-84
2023/09/04 04:26:08;;;;;;;5.63;4.50;;;;;;;18.68;60.39;99669.81;6972391;28;20700;-83
2023/09/04 04:29:29;;;;;;;4.40;4.00;;;;;;;19.29;59.82;99741.28;6971324;28;20367;-83
2023/09/04 04:32:51;;;;;;;6.23;4.33;;;;;;;19.13;59.92;99739.25;6971809;28;20618;-83
2023/09/04 04:36:12;;;;;;;6.10;4.87;;;;;;;18.10;61.90;99722.59;6963824;28;20229;-83
2023/09/04 04:39:34;;;;;;;6.97;5.17;;;;;;;18.12;63.46;99734.94;6966410;28;20359;-84
2023/09/04 04:42:57;;;;;;;6.63;5.60;;;;;;;18.72;62.60;99750.25;6969591;28;20715;-85
2023/09/04 04:46:19;;;;;;;6.97;6.03;;;;;;;18.79;61.71;99742.78;6968677;28;20233;-84
2023/09/04 04:49:40;;;;;;;6.07;5.20;;;;;;;18.46;61.30;99700.66;6971468;28;20222;-84
2023/09/04 04:53:03;;;;;;;8.03;5.13;;;;;;;19.07;60.75;99745.66;6970989;28;20244;-85
2023/09/04 04:56:24;;;;;;;5.73;4.70;;;;;;;18.34;61.14;99688.88;6970030;28;20215;-85
2023/09/04 04:59:47;;;;;;;6.10;4.93;;;;;;;18.66;60.89;99726.59;6970203;28;20289;-89
2023/09/04 05:03:09;;;;;;;6.20;5.60;;;;;;;17.86;63.63;99739.94;6972971;28;20205;-84
2023/09/04 05:06:31;;;;;;;5.93;5.07;;;;;;;17.92;62.66;99610.75;6953200;28;20222;-87
2023/09/04 05:09:53;;;;;;;5.83;4.57;;;;;;;18.88;61.05;99715.94;6990571;28;20231;-87
2023/09/04 05:13:14;;;;;;;5.27;4.53;;;;;;;18.43;60.45;99655.53;6989966;28;20243;-83
2023/09/04 05:16:37;;;;;;;5.53;5.03;;;;;;;18.89;60.57;99723.06;6964611;28;20226;-83
2023/09/04 05:19:59;;;;;;;5.40;4.53;;;;;;;19.05;59.67;99706.78;6969851;28;20301;-84
2023/09/04 05:23:20;;;;;;;6.37;5.77;;;;;;;19.08;59.72;99711.78;6971043;28;20289;-83
2023/09/04 05:26:42;;;;;;;6.60;5.07;;;;;;;18.43;61.37;99728.44;6974243;28;20254;-83
2023/09/04 05:30:04;;;;;;;5.63;5.00;;;;;;;18.81;60.93;99721.50;6977464;28;20266;-83
2023/09/04 05:33:27;;;;;;;5.73;5.20;;;;;;;18.48;62.18;99721.22;6973169;28;20207;-84
2023/09/04 05:36:49;;;;;;;5.40;4.90;;;;;;;19.09;60.94;99709.88;6980848;28;20237;-83
2023/09/04 05:40:11;;;;;;;6.43;5.40;;;;;;;18.83;60.90;99700.25;7000062;28;20247;-83
2023/09/04 05:43:32;;;;;;;5.37;4.87;;;;;;;19.41;59.95;99700.28;6999000;28;20213;-80
2023/09/04 05:46:54;;;;;;;5.43;4.93;;;;;;;19.52;60.36;99716.66;7000001;28;20201;-85
2023/09/04 05:50:17;;;;;;;6.77;5.30;;;;;;;19.70;59.28;99716.50;7002674;28;20221;-87
2023/09/04 05:53:38;;;;;;;5.77;5.00;;;;;;;19.78;60.73;99720.75;6994191;28;20780;-87
2023/09/04 05:57:00;;;;;;;7.37;4.90;;;;;;;20.41;57.67;99722.31;6974101;28;20210;-88
2023/09/04 06:00:22;;;;;;;5.63;5.07;;;;;;;20.73;56.38;99708.91;6975275;28;20690;-86
2023/09/04 06:03:45;;;;;;;8.90;5.63;;;;;;;21.16;55.32;99711.88;6975118;28;20705;-87
2023/09/04 06:07:10;;;;;;;5.03;4.53;;;;;;;21.09;55.36;99714.78;6974887;28;20202;-87
2023/09/04 06:10:31;;;;;;;5.30;4.80;;;;;;;21.33;56.18;99715.41;6974659;28;20282;-85
2023/09/04 06:13:53;;;;;;;5.17;4.67;;;;;;;21.73;54.52;99714.09;6967924;28;20222;-88
2023/09/04 06:17:14;;;;;;;5.73;4.53;;;;;;;21.96;53.74;99717.38;6972522;28;20321;-87
2023/09/04 06:20:36;;;;;;;4.90;4.47;;;;;;;22.11;53.58;99708.50;6973658;28;20770;-86
2023/09/04 06:23:59;;;;;;;5.27;4.30;;;;;;;22.48;52.75;99720.50;6945920;28;20314;-84
2023/09/04 06:27:20;;;;;;;4.57;4.07;;;;;;;22.71;52.83;99707.22;6945390;28;20232;-86
2023/09/04 06:30:44;;;;;;;4.13;3.83;;;;;;;23.31;51.35;99677.44;6948148;28;20220;-85
2023/09/04 06:34:06;;;;;;;4.30;3.90;;;;;;;23.88;49.82;99703.13;6947292;28;20224;-86
2023/09/04 06:37:27;;;;;;;3.70;3.40;;;;;;;24.09;48.91;99682.81;6948118;28;20269;-86
2023/09/04 06:40:57;;;;;;;5.00;4.30;;;;;;;23.80;50.38;99651.28;6947638;28;20235;-86
2023/09/04 06:44:18;;;;;;;6.87;4.00;;;;;;;24.41;49.60;99702.72;6946449;28;20285;-86
2023/09/04 06:47:40;;;;;;;5.37;4.03;;;;;;;24.89;47.73;99674.66;6945246;28;20247;-87
2023/09/04 06:51:02;;;;;;;5.83;4.20;;;;;;;24.63;48.41;99697.00;6958259;28;20228;-86
2023/09/04 06:54:24;;;;;;;4.60;4.20;;;;;;;24.16;49.22;99672.34;6972357;28;20691;-86
2023/09/04 06:57:47;;;;;;;6.83;4.03;;;;;;;25.18;48.50;99692.28;6985708;28;20198;-86
2023/09/04 07:01:08;;;;;;;3.80;3.50;;;;;;;25.86;46.25;99688.84;6973165;28;20208;-87
2023/09/04 07:04:30;;;;;;;4.87;3.57;;;;;;;26.12;45.65;99689.56;6973016;28;20714;-87
2023/09/04 07:07:51;;;;;;;3.97;3.57;;;;;;;25.95;45.68;99692.69;6974036;28;20292;-87
2023/09/04 07:11:13;;;;;;;5.57;3.80;;;;;;;25.05;44.83;99668.03;6973387;28;20233;-87
2023/09/04 07:14:37;;;;;;;4.90;4.40;;;;;;;23.20;49.64;99692.22;6983332;28;20632;-86
2023/09/04 07:18:00;;;;;;;4.30;3.90;;;;;;;23.57;48.06;99697.69;6975117;28;20200;-87
2023/09/04 07:21:22;;;;;;;4.67;4.27;;;;;;;23.71;48.09;99683.16;6973074;28;20216;-86
2023/09/04 07:24:43;;;;;;;5.50;3.63;;;;;;;24.20;46.94;99584.44;6972629;28;20869;-86
2023/09/04 07:28:05;;;;;;;6.43;4.90;;;;;;;23.07;48.19;99599.13;6972412;28;20213;-86
2023/09/04 07:31:28;;;;;;;4.97;3.80;;;;;;;23.82;47.65;99648.22;6976075;28;20254;-85
2023/09/04 07:34:55;;;;;;;4.40;4.00;;;;;;;23.18;48.52;99658.66;6982402;28;20303;-86
2023/09/04 07:38:16;;;;;;;3.60;3.30;;;;;;;24.80;45.73;99670.81;7000162;28;20206;-86
2023/09/04 07:41:38;;;;;;;3.90;3.60;;;;;;;25.30;44.50;99692.84;6980681;28;20244;-86
2023/09/04 07:44:59;;;;;;;4.47;3.80;;;;;;;25.43;44.72;99677.66;6972207;28;20271;-87
2023/09/04 07:48:23;;;;;;;3.90;3.60;;;;;;;24.06;45.30;99550.28;6971230;28;20256;-87
2023/09/04 07:51:44;;;;;;;4.03;3.60;;;;;;;25.62;45.14;99687.81;6972489;28;20706;-86
2023/09/04 07:55:09;;;;;;;4.47;4.13;;;;;;;26.05;43.13;99689.03;6976743;28;20217;-87
2023/09/04 07:58:31;;;;;;;10.83;4.13;;;;;;;27.47;40.88;99685.75;6999121;28;20201;-86
2023/09/04 08:01:52;;;;;;;5.03;3.73;;;;;;;26.76;41.52;99685.56;6999908;28;20262;-86
2023/09/04 08:05:17;;;;;;;3.87;3.57;;;;;;;26.39;43.17;99698.25;6976392;28;20275;-87
2023/09/04 08:08:39;;;;;;;4.40;3.60;;;;;;;25.68;44.29;99645.25;6960442;28;20266;-83
2023/09/04 08:12:00;;;;;;;4.33;3.40;;;;;;;25.47;44.78;99642.81;6962871;28;20222;-82
2023/09/04 08:15:21;;;;;;;5.87;3.40;;;;;;;25.97;43.62;99646.25;6976272;28;20238;-83
2023/09/04 08:18:43;;;;;;;8.03;4.03;;;;;;;25.16;45.31;99677.09;6992270;28;20290;-80
2023/09/04 08:22:06;;;;;;;4.60;4.00;;;;;;;25.21;46.25;99691.75;6945459;28;20300;-83
2023/09/04 08:25:27;;;;;;;4.37;3.97;;;;;;;26.37;43.39;99686.66;6946696;28;20312;-81
2023/09/04 08:28:49;;;;;;;4.13;3.67;;;;;;;26.12;43.13;99659.97;6968327;28;20301;-82
2023/09/04 08:32:10;;;;;;;7.73;3.53;;;;;;;27.26;41.75;99685.13;6973085;28;20786;-84
2023/09/04 08:35:32;;;;;;;5.30;3.70;;;;;;;26.92;42.22;99689.03;6986911;28;20300;-83
2023/09/04 08:38:55;;;;;;;4.10;3.80;;;;;;;25.93;41.47;99576.06;6982204;28;20257;-86
2023/09/04 08:42:17;;;;;;;5.10;3.70;;;;;;;27.64;40.37;99669.50;7013008;28;20206;-86
2023/09/04 08:45:40;;;;;;;3.13;2.93;;;;;;;26.56;42.29;99597.22;7004755;28;20753;-86
2023/09/04 08:49:03;;;;;;;4.07;3.67;;;;;;;27.70;39.71;99660.00;6971323;28;20267;-86
2023/09/04 08:52:25;;;;;;;4.10;3.70;;;;;;;26.59;41.26;99637.28;6970881;28;20226;-86
2023/09/04 08:55:47;;;;;;;4.17;3.80;;;;;;;27.32;41.50;99669.31;6969330;28;20234;-85
2023/09/04 08:59:09;;;;;;;3.30;3.00;;;;;;;28.49;39.81;99666.44;6971115;28;20252;-84
2023/09/04 09:02:31;;;;;;;3.33;3.03;;;;;;;28.71;38.57;99655.53;6969539;28;20293;-84
2023/09/04 09:05:55;;;;;;;3.73;3.43;;;;;;;29.19;37.45;99643.06;6968787;28;20711;-84
2023/09/04 09:09:17;;;;;;;3.23;2.93;;;;;;;28.58;38.57;99641.59;6979476;28;20207;-84
2023/09/04 09:12:40;;;;;;;2.97;2.77;;;;;;;28.16;39.77;99647.22;6980435;28;20247;-84
2023/09/04 09:16:01;;;;;;;4.17;3.77;;;;;;;28.14;39.39;99643.94;6981983;28;20636;-84
2023/09/04 09:19:23;;;;;;;3.87;3.33;;;;;;;28.77;39.78;99642.41;6963575;28;20231;-84
2023/09/04 09:22:51;;;;;;;4.57;3.13;;;;;;;29.66;36.58;99628.81;6975384;28;20273;-84
2023/09/04 09:26:12;;;;;;;3.50;3.20;;;;;;;29.03;36.24;99632.53;6995926;28;20232;-85
2023/09/04 09:29:36;;;;;;;3.67;3.30;;;;;;;30.03;35.60;99636.09;6997045;28;20346;-84
2023/09/04 09:32:59;;;;;;;3.83;3.53;;;;;;;29.17;36.07;99631.44;6973166;28;20589;-84
2023/09/04 09:36:20;;;;;;;3.40;3.10;;;;;;;30.02;33.39;99592.72;6969712;28;20222;-84
2023/09/04 09:39:42;;;;;;;3.50;3.20;;;;;;;30.72;34.91;99641.22;6970780;28;20245;-83
2023/09/04 09:43:04;;;;;;;3.70;3.10;;;;;;;31.00;33.35;99629.59;6986606;28;20267;-85
2023/09/04 09:46:28;;;;;;;3.27;2.97;;;;;;;30.69;33.75;99620.38;6979719;28;20238;-84
2023/09/04 09:49:50;;;;;;;4.27;3.60;;;;;;;30.73;33.12;99617.78;6978093;28;20272;-83
2023/09/04 09:53:12;;;;;;;3.93;3.00;;;;;;;30.97;33.34;99633.03;6976601;28;20195;-84
2023/09/04 09:56:34;;;;;;;3.77;2.90;;;;;;;30.75;32.21;99630.25;6985261;28;20305;-84
2023/09/04 09:59:56;;;;;;;3.10;2.90;;;;;;;30.37;32.38;99631.72;6981751;28;20291;-85
2023/09/04 10:03:19;;;;;;;3.40;3.10;;;;;;;30.39;32.27;99615.53;6984446;28;20235;-80
2023/09/04 10:06:42;;;;;;;10.87;6.57;;;;;;;30.93;31.51;99603.31;6976243;28;20701;-84
2023/09/04 10:10:05;;;;;;;3.33;3.10;;;;;;;30.35;31.42;99611.72;6954636;28;20202;-86
2023/09/04 10:13:27;;;;;;;3.50;3.20;;;;;;;31.02;30.17;99556.84;6959519;28;20221;-87
2023/09/04 10:16:54;;;;;;;4.07;3.10;;;;;;;30.06;30.91;99543.66;6968858;28;20210;-86
2023/09/04 10:20:26;;;;;;;3.10;2.80;;;;;;;29.29;31.33;99530.91;6942122;28;20238;-86
2023/09/04 10:23:50;;;;;;;2.77;2.57;;;;;;;30.10;29.42;99605.91;6948832;28;20293;-85
2023/09/04 10:27:13;;;;;;;3.17;2.87;;;;;;;30.57;29.81;99542.16;6957122;28;20211;-84
2023/09/04 10:30:37;;;;;;;3.10;2.90;;;;;;;31.44;29.21;99534.72;6973326;28;20219;-85
2023/09/04 10:34:00;;;;;;;2.97;2.77;;;;;;;30.58;29.75;99587.50;6972792;28;20254;-86
2023/09/04 10:37:27;;;;;;;2.83;2.63;;;;;;;30.42;29.86;99547.28;6975072;28;20211;-87
2023/09/04 10:40:50;;;;;;;3.00;2.77;;;;;;;31.40;28.52;99550.47;6963531;28;20193;-87
2023/09/04 10:44:12;;;;;;;4.27;3.03;;;;;;;31.46;27.65;99499.00;7001117;28;20230;-86
2023/09/04 10:47:44;;;;;;;3.43;3.13;;;;;;;30.91;28.07;99500.56;7000786;28;20208;-88
2023/09/04 10:51:26;;;;;;;3.57;3.27;;;;;;;31.98;27.12;99541.75;7001814;28;20255;-88
2023/09/04 10:55:11;;;;;;;3.40;2.90;;;;;;;32.04;27.57;99537.66;7000593;28;20223;-88
2023/09/04 10:58:58;;;;;;;3.53;3.23;;;;;;;31.27;28.38;99556.16;7000391;28;20242;-87
2023/09/04 11:02:25;;;;;;;4.43;3.07;;;;;;;31.17;27.83;99542.47;7001225;28;20282;-86
2023/09/04 11:06:09;;;;;;;2.83;2.40;;;;;;;32.58;27.96;99553.75;7000164;28;20214;-87
2023/09/04 11:09:32;;;;;;;4.43;3.50;;;;;;;32.12;26.76;99545.22;6999598;28;20605;-86
2023/09/04 11:12:55;;;;;;;2.83;2.63;;;;;;;32.65;26.79;99554.06;7000172;28;20714;-86
2023/09/04 11:16:17;;;;;;;2.80;2.60;;;;;;;32.73;25.60;99548.47;6999365;28;20277;-86
2023/09/04 11:19:39;;;;;;;2.97;2.77;;;;;;;33.35;25.57;99558.03;6992736;28;20567;-87
2023/09/04 11:23:00;;;;;;;2.60;2.40;;;;;;;33.59;23.58;99527.47;6967814;28;20246;-86
2023/09/04 11:26:22;;;;;;;2.90;2.70;;;;;;;33.63;23.63;99545.22;6969372;28;20234;-87
2023/09/04 11:29:45;;;;;;;3.07;2.80;;;;;;;32.09;24.39;99495.66;6971052;28;20288;-86
2023/09/04 11:33:06;;;;;;;3.43;2.70;;;;;;;31.38;25.54;99530.44;6970823;28;20326;-87
2023/09/04 11:36:28;;;;;;;3.97;2.60;;;;;;;32.84;24.00;99527.44;6971081;28;20282;-86
2023/09/04 11:39:53;;;;;;;3.17;2.70;;;;;;;32.63;25.93;99514.47;6965709;28;20288;-86
2023/09/04 11:43:14;;;;;;;3.00;2.80;;;;;;;31.68;27.12;99515.63;6971620;28;20210;-87
2023/09/04 11:46:38;;;;;;;2.70;2.50;;;;;;;32.03;25.84;99508.97;6970437;28;20268;-87
2023/09/04 11:49:59;;;;;;;2.70;2.50;;;;;;;32.35;26.28;99502.88;6971718;28;20351;-86
2023/09/04 11:53:21;;;;;;;2.63;2.43;;;;;;;32.65;24.79;99503.78;6971248;28;20323;-87
2023/09/04 11:56:42;;;;;;;2.63;2.43;;;;;;;32.30;25.69;99505.84;6970888;28;20315;-86
2023/09/04 12:00:06;;;;;;;3.60;2.60;;;;;;;32.20;25.30;99477.41;6971106;28;20303;-86
2023/09/04 12:03:29;;;;;;;2.93;2.67;;;;;;;33.04;24.17;99493.19;6960078;28;20209;-87
2023/09/04 12:06:51;;;;;;;4.73;2.73;;;;;;;31.84;25.62;99446.25;6946871;28;20192;-85
2023/09/04 12:10:12;;;;;;;3.00;2.67;;;;;;;31.93;24.17;99492.53;6956738;28;20216;-85
2023/09/04 12:13:34;;;;;;;3.20;2.90;;;;;;;31.93;23.69;99394.06;6974328;28;20785;-86
2023/09/04 12:16:55;;;;;;;3.00;2.77;;;;;;;31.49;24.30;99476.03;6972963;28;20244;-85
2023/09/04 12:20:18;;;;;;;3.50;2.70;;;;;;;32.13;24.33;99460.34;6975250;28;20241;-85
2023/09/04 12:23:43;;;;;;;2.90;2.70;;;;;;;31.01;24.41;99380.50;6975363;28;20236;-84
2023/09/04 12:27:06;;;;;;;2.83;2.63;;;;;;;31.96;24.21;99390.63;6966371;28;20206;-85
2023/09/04 12:30:27;;;;;;;3.00;2.70;;;;;;;31.80;24.79;99406.22;6973438;28;20583;-85
2023/09/04 12:33:51;;;;;;;3.63;2.80;;;;;;;33.57;23.34;99417.06;6973895;28;20225;-85
2023/09/04 12:37:13;;;;;;;2.90;2.70;;;;;;;33.39;22.72;99454.69;6974498;28;20242;-85
2023/09/04 12:40:36;;;;;;;2.70;2.50;;;;;;;33.70;21.67;99452.34;6974836;28;20300;-85
2023/09/04 12:43:57;;;;;;;2.80;2.60;;;;;;;32.10;22.72;99452.63;6975033;28;20272;-84
2023/09/04 12:47:19;;;;;;;4.00;2.77;;;;;;;31.95;22.51;99461.53;6976095;28;20205;-85
2023/09/04 12:50:41;;;;;;;3.07;2.77;;;;;;;31.47;19.78;99432.91;6974099;28;20207;-85
2023/09/04 12:54:04;;;;;;;6.87;3.03;;;;;;;31.60;21.84;99440.31;6974937;28;20761;-85
2023/09/04 12:57:25;;;;;;;2.70;2.50;;;;;;;33.10;19.65;99441.53;6975643;28;20686;-85
2023/09/04 13:00:47;;;;;;;2.80;2.50;;;;;;;33.05;19.59;99440.88;6976486;28;20680;-86
2023/09/04 13:04:10;;;;;;;2.60;2.40;;;;;;;32.38;20.15;99438.00;6966442;28;20256;-86
2023/09/04 13:07:33;;;;;;;3.77;2.80;;;;;;;33.41;20.61;99441.19;6969619;28;20201;-85
2023/09/04 13:10:55;;;;;;;3.00;2.80;;;;;;;33.57;20.94;99433.84;6974492;28;20206;-83
2023/09/04 13:14:17;;;;;;;3.13;2.60;;;;;;;32.49;21.46;99422.53;6970803;28;20312;-86
2023/09/04 13:17:41;;;;;;;3.33;2.87;;;;;;;32.46;21.47;99414.00;6968917;28;20296;-85
2023/09/04 13:21:03;;;;;;;2.70;2.50;;;;;;;32.74;22.37;99390.06;6969516;28;20661;-85
2023/09/04 13:24:24;;;;;;;3.00;2.17;;;;;;;34.12;21.51;99404.41;6968751;28;20225;-85
2023/09/04 13:27:47;;;;;;;2.87;2.67;;;;;;;33.98;21.57;99397.47;6962548;28;20285;-85
2023/09/04 13:31:09;;;;;;;3.07;2.80;;;;;;;33.50;21.18;99403.59;6963531;28;20684;-84
2023/09/04 13:34:31;;;;;;;2.80;2.60;;;;;;;32.71;21.58;99349.66;6966856;28;20272;-84
2023/09/04 13:37:52;;;;;;;4.03;2.67;;;;;;;32.35;22.22;99380.03;6967313;28;20209;-85
2023/09/04 13:41:14;;;;;;;3.13;2.83;;;;;;;33.21;21.21;99397.22;6968073;28;20858;-84
2023/09/04 13:44:37;;;;;;;3.93;3.00;;;;;;;32.34;21.91;99358.88;6942963;28;20242;-84
2023/09/04 13:47:58;;;;;;;4.43;2.87;;;;;;;33.30;20.68;99396.03;6940890;28;20205;-85
2023/09/04 13:51:21;;;;;;;3.57;2.90;;;;;;;33.04;19.63;99388.94;6941244;28;20321;-85
2023/09/04 13:54:43;;;;;;;3.20;3.00;;;;;;;33.32;19.00;99384.53;6942524;28;20234;-84
2023/09/04 13:58:04;;;;;;;3.37;3.07;;;;;;;32.35;20.47;99391.22;6985118;28;20306;-84
2023/09/04 14:01:27;;;;;;;2.77;2.57;;;;;;;32.87;20.01;99384.28;6982147;28;20212;-83
2023/09/04 14:04:48;;;;;;;2.73;2.53;;;;;;;33.93;19.35;99369.69;6980626;28;20288;-83
2023/09/04 14:08:11;;;;;;;2.93;2.70;;;;;;;32.45;18.82;99348.13;6998078;28;20296;-83
2023/09/04 14:11:33;;;;;;;3.03;2.83;;;;;;;32.52;19.28;99371.59;7006615;28;20239;-83
2023/09/04 14:14:54;;;;;;;4.07;3.07;;;;;;;32.48;19.50;99372.63;7007263;28;20318;-83
2023/09/04 14:18:17;;;;;;;3.33;2.90;;;;;;;32.78;18.93;99374.31;7003147;28;20240;-83
2023/09/04 14:21:38;;;;;;;2.97;2.77;;;;;;;32.74;19.42;99368.56;7003121;28;20212;-81
2023/09/04 14:25:00;;;;;;;3.37;2.87;;;;;;;32.79;19.47;99336.84;6997712;28;20236;-80
2023/09/04 14:28:21;;;;;;;3.17;2.80;;;;;;;33.04;19.66;99358.19;6979078;28;20240;-80
2023/09/04 14:31:43;;;;;;;3.17;2.87;;;;;;;33.64;19.72;99350.19;6977122;28;20236;-80
2023/09/04 14:35:06;;;;;;;3.40;3.10;;;;;;;33.37;19.33;99332.00;6974792;28;20260;-82
2023/09/04 14:38:31;;;;;;;3.40;3.10;;;;;;;33.83;19.08;99342.16;6974150;28;20302;-82
2023/09/04 14:41:52;;;;;;;3.80;3.30;;;;;;;33.63;18.05;99346.59;6973442;28;20235;-83
2023/09/04 14:45:14;;;;;;;3.33;3.00;;;;;;;33.19;20.25;99349.25;6973530;28;20261;-82
2023/09/04 14:48:36;;;;;;;4.63;3.00;;;;;;;32.39;21.64;99314.03;6971632;28;20299;-83
2023/09/04 14:51:59;;;;;;;3.53;3.23;;;;;;;32.98;22.00;99345.59;6973743;28;20455;-82
2023/09/04 14:55:20;;;;;;;3.90;3.07;;;;;;;32.41;23.03;99327.63;6974541;28;20259;-81
2023/09/04 14:58:42;;;;;;;3.23;2.93;;;;;;;32.64;23.09;99345.75;6988666;28;20702;-82
2023/09/04 15:02:04;;;;;;;3.07;2.77;;;;;;;32.41;23.68;99342.41;7016748;28;20215;-82
2023/09/04 15:05:25;;;;;;;3.03;2.73;;;;;;;32.32;23.28;99340.81;7015443;28;20821;-82
2023/09/04 15:08:48;;;;;;;3.40;3.10;;;;;;;33.01;23.30;99334.53;7011450;28;20257;-81
2023/09/04 15:12:11;;;;;;;3.30;3.00;;;;;;;33.34;22.76;99337.47;7006177;28;20276;-82
2023/09/04 15:15:33;;;;;;;3.23;2.83;;;;;;;33.07;22.40;99333.19;7004415;28;20698;-81
2023/09/04 15:18:54;;;;;;;3.33;3.03;;;;;;;32.96;22.24;99336.75;6990120;28;20239;-82
2023/09/04 15:22:16;;;;;;;3.50;3.17;;;;;;;32.69;21.83;99278.53;6978818;28;20227;-82
2023/09/04 15:25:39;;;;;;;3.00;2.80;;;;;;;32.51;22.37;99321.66;6974050;28;20241;-82
2023/09/04 15:29:01;;;;;;;4.07;2.90;;;;;;;32.32;22.76;99307.31;6975135;28;20267;-81
2023/09/04 15:32:23;;;;;;;3.30;3.00;;;;;;;33.20;22.25;99317.31;6960941;28;20378;-82
2023/09/04 15:35:47;;;;;;;3.67;3.23;;;;;;;33.29;22.16;99313.34;6973705;28;20306;-82
2023/09/04 15:39:08;;;;;;;3.97;3.20;;;;;;;32.67;21.65;99290.03;6975509;28;20213;-82
2023/09/04 15:42:31;;;;;;;3.00;2.70;;;;;;;32.91;22.38;99306.19;6968434;28;20228;-82
2023/09/04 15:45:52;;;;;;;3.77;2.90;;;;;;;32.86;23.08;99279.28;6974210;28;20229;-83
2023/09/04 15:49:14;;;;;;;3.43;3.10;;;;;;;32.19;22.79;99258.88;6978791;28;20231;-81
2023/09/04 15:52:36;;;;;;;3.13;2.93;;;;;;;32.46;23.39;99294.75;6978971;28;20306;-82
2023/09/04 15:55:57;;;;;;;3.00;2.70;;;;;;;31.88;23.95;99294.63;6977675;28;20280;-82